ADDS TAF Data INFO
IDs: Format: Raw Decoded Include METARs

Data at: 1547 UTC 19 Nov 2017

KSAF 191453Z 35012KT 10SM CLR M03/M12 A3031 RMK AO2 SLP271 T10331117 51004

KSAF 191134Z 1912/2012 36012G20KT P6SM SKC
  FM192000 26008KT P6SM FEW250
  FM200200 35007KT P6SM SKC